Main page
METAR-TAF:

METAR-TAF

Airports :

Pisa International Airport

Pisa, Italy

latitude: 43-41N, longitude: 010-23E, elevation: 2 m

Current weather observation

The report was made 21 minutes ago, at 18:45 UTC
Wind 4 kt from the South/Southeast
Temperature 13°C
Humidity 100%
Pressure 1028 hPa
Visibility 10 km or more
Few clouds at a height of 2500 ft
Shallow fog

METAR: LIRP 131845Z 15004KT 9999 MIFG FEW025 13/13 Q1028 NOSIG

Time: 20:06 (19:06 UTC)

Forecast

The report was made 2 hours and 6 minutes ago, at 17:00 UTC
Forecast valid from 13 at 18 UTC to 14 at 18 UTC
Wind 5 kt from the East
Visibility: 8000 m
Few clouds at a height of 2000 ft
Scattered clouds at a height of 4000 ft
Becoming
from 13 at 18 UTC to 13 at 20 UTC
Visibility: 5000 m
mist
Temporary
from 13 at 23 UTC to 14 at 05 UTC
Visibility: 3000 m
Broken clouds at a height of 2000 ft
mist

TAF: LIRP 131700Z 1318/1418 10005KT 8000 FEW020 SCT040 BECMG 1318/1320 5000 BR TEMPO 1323/1405 3000 BR BKN020

Weather observations and forecasts of more than 4000 airports (METAR and TAF reports).

The available stations are represented by yellow and red dots on the map.

Hover mouse over dot to see the name of the station.

Then click to see weather observations and forecasts.

To change the map : click on the green buttons with a black cross to zoom in, on the green button with a dash to zoom out, or on the green arrows for adjacent maps.


METAR-TAF: